| time (UTC) | temp F | wind direction | speed MPH | gust MPH | rain 1hr in | rain 24hr in | rain mn in | humidity % | barometer mb |
| 20260504050014 | 57 | 219 | 6.0 | 11.0 | 0.00 | 0.00 | 0.00 | 69 | 1006.0 |
| 20260504044555 | 58 | 215 | 6.0 | 10.0 | 0.00 | 0.00 | 0.00 | 68 | 1006.1 |
| 20260504043101 | 58 | 215 | 5.0 | 10.0 | 0.00 | 0.00 | 0.00 | 69 | 1006.2 |
| 20260504041535 | 58 | 186 | 6.0 | 12.0 | 0.00 | 0.00 | 0.00 | 68 | 1006.1 |
| 20260504040034 | 59 | 203 | 7.0 | 13.0 | 0.00 | 0.00 | 0.00 | 66 | 1006.1 |
| 20260504034514 | 59 | 208 | 9.0 | 14.0 | 0.00 | 0.00 | 0.00 | 66 | 1006.1 |
| 20260504033011 | 59 | 234 | 6.0 | 14.0 | 0.00 | 0.00 | 0.00 | 66 | 1006.3 |
| 20260504031552 | 60 | 217 | 7.0 | 13.0 | 0.00 | 0.00 | 0.00 | 64 | 1006.3 |
| 20260504030049 | 61 | 184 | 7.0 | 15.0 | 0.00 | 0.00 | 0.00 | 62 | 1006.3 |
| 20260504024529 | 61 | 188 | 8.0 | 15.0 | 0.00 | 0.00 | 0.00 | 62 | 1006.2 |
| 20260504023028 | 61 | 200 | 7.0 | 13.0 | 0.00 | 0.00 | 0.00 | 61 | 1006.3 |
| 20260504021507 | 61 | 184 | 6.0 | 13.0 | 0.00 | 0.00 | 0.00 | 60 | 1006.3 |
| 20260504020005 | 62 | 196 | 7.0 | 12.0 | 0.00 | 0.00 | 0.00 | 59 | 1006.2 |
| 20260504014551 | 62 | 193 | 5.0 | 12.0 | 0.00 | 0.00 | 0.00 | 58 | 1006.2 |
| 20260504013043 | 63 | 223 | 6.0 | 9.0 | 0.00 | 0.00 | 0.00 | 57 | 1006.1 |
| 20260504011542 | 64 | 196 | 5.0 | 10.0 | 0.00 | 0.00 | 0.00 | 54 | 1006.1 |
| 20260504010037 | 65 | 210 | 7.0 | 14.0 | 0.00 | 0.00 | 0.00 | 52 | 1006.0 |
| 20260504004536 | 66 | 210 | 7.0 | 14.0 | 0.00 | 0.00 | 0.00 | 50 | 1006.0 |
| 20260504003035 | 67 | 213 | 5.0 | 15.0 | 0.00 | 0.00 | 0.00 | 47 | 1006.0 |
| 20260504001536 | 68 | 231 | 5.0 | 15.0 | 0.00 | 0.00 | 0.00 | 46 | 1006.0 |
| 20260504000037 | 68 | 211 | 10.0 | 23.0 | 0.00 | 0.00 | 0.00 | 45 | 1006.0 |
| 20260503234519 | 68 | 271 | 9.0 | 18.0 | 0.00 | 0.00 | 0.00 | 45 | 1006.3 |
| 20260503233014 | 69 | 196 | 8.0 | 22.0 | 0.00 | 0.00 | 0.00 | 45 | 1006.2 |
| 20260503231602 | 69 | 230 | 7.0 | 20.0 | 0.00 | 0.00 | 0.00 | 45 | 1006.2 |
| 20260503230108 | 69 | 211 | 10.0 | 22.0 | 0.00 | 0.00 | 0.00 | 43 | 1006.3 |
| 20260503224537 | 69 | 223 | 9.0 | 23.0 | 0.00 | 0.00 | 0.00 | 44 | 1006.3 |
| 20260503223036 | 68 | 240 | 13.0 | 25.0 | 0.00 | 0.00 | 0.00 | 44 | 1006.5 |
| 20260503221516 | 68 | 228 | 11.0 | 22.0 | 0.00 | 0.00 | 0.00 | 44 | 1006.6 |
| 20260503220016 | 69 | 253 | 12.0 | 24.0 | 0.00 | 0.00 | 0.00 | 43 | 1006.7 |
| 20260503214557 | 69 | 203 | 13.0 | 28.0 | 0.00 | 0.00 | 0.00 | 43 | 1006.6 |
| 20260503213103 | 69 | 254 | 12.0 | 24.0 | 0.00 | 0.00 | 0.00 | 41 | 1006.6 |
| 20260503211549 | 69 | 213 | 15.0 | 30.0 | 0.00 | 0.00 | 0.00 | 41 | 1006.7 |
| 20260503210036 | 68 | 227 | 13.0 | 28.0 | 0.00 | 0.00 | 0.00 | 41 | 1006.9 |
| 20260503204517 | 68 | 242 | 15.0 | 24.0 | 0.00 | 0.00 | 0.00 | 41 | 1007.1 |
| 20260503203014 | 68 | 241 | 12.0 | 25.0 | 0.00 | 0.00 | 0.00 | 40 | 1007.3 |
| 20260503201601 | 68 | 223 | 16.0 | 29.0 | 0.00 | 0.00 | 0.00 | 39 | 1007.5 |
| 20260503200106 | 68 | 227 | 17.0 | 26.0 | 0.00 | 0.00 | 0.00 | 39 | 1007.9 |
| 20260503194601 | 67 | 172 | 14.0 | 32.0 | 0.00 | 0.00 | 0.00 | 41 | 1008.2 |
| 20260503193057 | 65 | 211 | 14.0 | 26.0 | 0.00 | 0.00 | 0.00 | 43 | 1008.6 |
| 20260503191549 | 65 | 205 | 18.0 | 32.0 | 0.00 | 0.00 | 0.00 | 41 | 1008.8 |
| 20260503190048 | 65 | 185 | 18.0 | 33.0 | 0.00 | 0.00 | 0.00 | 39 | 1009.1 |
| 20260503184552 | 65 | 203 | 16.0 | 29.0 | 0.00 | 0.00 | 0.00 | 39 | 1009.0 |
| 20260503183043 | 64 | 209 | 19.0 | 34.0 | 0.00 | 0.00 | 0.00 | 41 | 1009.0 |
| 20260503181519 | 63 | 197 | 16.0 | 32.0 | 0.00 | 0.00 | 0.00 | 43 | 1009.2 |
| 20260503180028 | 63 | 167 | 16.0 | 29.0 | 0.00 | 0.00 | 0.00 | 44 | 1009.8 |
| 20260503174614 | 62 | 180 | 15.0 | 27.0 | 0.00 | 0.00 | 0.00 | 47 | 1010.4 |
| 20260503173101 | 60 | 207 | 13.0 | 27.0 | 0.00 | 0.00 | 0.00 | 50 | 1011.0 |
| 20260503171548 | 58 | 176 | 9.0 | 22.0 | 0.00 | 0.00 | 0.00 | 56 | 1011.4 |
| 20260503081538 | 44 | 208 | 7.0 | 14.0 | 0.00 | 0.00 | 0.00 | 67 | 1015.4 |
| 20260503071546 | 45 | 180 | 5.0 | 11.0 | 0.00 | 0.00 | 0.00 | 65 | 1015.5 |
| 20260503054538 | 46 | 188 | 5.0 | 11.0 | 0.00 | 0.00 | 0.00 | 60 | 1016.3 |
| 20260503053020 | 46 | 192 | 5.0 | 9.0 | 0.00 | 0.00 | 0.00 | 59 | 1016.4 |